sensor_id;sensor_type;location;lat;lon;timestamp;pressure;altitude;pressure_sealevel;temperature
15544;BMP180;7873;52.230;12.856;2022-10-16T00:01:47;100417.84;;;24.95
15544;BMP180;7873;52.230;12.856;2022-10-16T00:04:14;100409.94;;;24.94
15544;BMP180;7873;52.230;12.856;2022-10-16T00:06:41;100409.75;;;24.95
15544;BMP180;7873;52.230;12.856;2022-10-16T00:09:09;100409.09;;;24.93
15544;BMP180;7873;52.230;12.856;2022-10-16T00:11:38;100413.25;;;24.96
15544;BMP180;7873;52.230;12.856;2022-10-16T00:14:07;100424.88;;;24.96
15544;BMP180;7873;52.230;12.856;2022-10-16T00:16:34;100424.66;;;24.98
15544;BMP180;7873;52.230;12.856;2022-10-16T00:19:01;100434.63;;;24.97
15544;BMP180;7873;52.230;12.856;2022-10-16T00:21:29;100437.09;;;24.99
15544;BMP180;7873;52.230;12.856;2022-10-16T00:23:58;100436.28;;;24.98
15544;BMP180;7873;52.230;12.856;2022-10-16T00:26:28;100426.72;;;24.96
15544;BMP180;7873;52.230;12.856;2022-10-16T00:28:55;100428.59;;;24.95
15544;BMP180;7873;52.230;12.856;2022-10-16T00:31:23;100429.03;;;24.99
15544;BMP180;7873;52.230;12.856;2022-10-16T00:33:50;100433.59;;;24.98
15544;BMP180;7873;52.230;12.856;2022-10-16T00:36:18;100437.09;;;24.99
15544;BMP180;7873;52.230;12.856;2022-10-16T00:38:46;100441.69;;;24.98
15544;BMP180;7873;52.230;12.856;2022-10-16T00:41:15;100440.66;;;24.99
15544;BMP180;7873;52.230;12.856;2022-10-16T00:43:45;100433.59;;;24.98
15544;BMP180;7873;52.230;12.856;2022-10-16T00:46:17;100441.28;;;25.01
15544;BMP180;7873;52.230;12.856;2022-10-16T00:48:48;100437.94;;;24.99
15544;BMP180;7873;52.230;12.856;2022-10-16T00:51:15;100443.13;;;25.01
15544;BMP180;7873;52.230;12.856;2022-10-16T00:53:44;100446.66;;;25.01
15544;BMP180;7873;52.230;12.856;2022-10-16T00:56:11;100442.31;;;25.00
15544;BMP180;7873;52.230;12.856;2022-10-16T00:58:38;100440.44;;;25.01
15544;BMP180;7873;52.230;12.856;2022-10-16T01:01:06;100446.44;;;25.03
15544;BMP180;7873;52.230;12.856;2022-10-16T01:03:34;100449.78;;;25.05
15544;BMP180;7873;52.230;12.856;2022-10-16T01:06:09;100437.56;;;25.02
15544;BMP180;7873;52.230;12.856;2022-10-16T01:08:47;100445.00;;;25.00
15544;BMP180;7873;52.230;12.856;2022-10-16T01:11:22;100447.47;;;25.02
15544;BMP180;7873;52.230;12.856;2022-10-16T01:13:53;100443.97;;;25.01
15544;BMP180;7873;52.230;12.856;2022-10-16T01:16:30;100469.66;;;25.04
15544;BMP180;7873;52.230;12.856;2022-10-16T01:19:05;100468.63;;;25.05
15544;BMP180;7873;52.230;12.856;2022-10-16T01:21:36;100470.69;;;25.03
15544;BMP180;7873;52.230;12.856;2022-10-16T01:24:09;100465.53;;;25.01
15544;BMP180;7873;52.230;12.856;2022-10-16T01:26:50;100466.97;;;25.04
15544;BMP180;7873;52.230;12.856;2022-10-16T01:29:22;100474.03;;;25.05
15544;BMP180;7873;52.230;12.856;2022-10-16T01:31:54;100478.59;;;25.04
15544;BMP180;7873;52.230;12.856;2022-10-16T01:34:30;100475.50;;;25.07
15544;BMP180;7873;52.230;12.856;2022-10-16T01:37:02;100477.00;;;25.10
15544;BMP180;7873;52.230;12.856;2022-10-16T01:39:33;100474.94;;;25.12
15544;BMP180;7873;52.230;12.856;2022-10-16T01:42:04;100479.69;;;25.10
15544;BMP180;7873;52.230;12.856;2022-10-16T01:44:34;100481.34;;;25.11
15544;BMP180;7873;52.230;12.856;2022-10-16T01:47:02;100503.72;;;25.11
15544;BMP180;7873;52.230;12.856;2022-10-16T01:49:33;100491.91;;;25.12
15544;BMP180;7873;52.230;12.856;2022-10-16T01:52:02;100484.84;;;25.11
15544;BMP180;7873;52.230;12.856;2022-10-16T01:54:32;100493.97;;;25.10
15544;BMP180;7873;52.230;12.856;2022-10-16T01:57:01;100498.53;;;25.10
15544;BMP180;7873;52.230;12.856;2022-10-16T01:59:30;100500.38;;;25.09
15544;BMP180;7873;52.230;12.856;2022-10-16T02:02:01;100494.38;;;25.07
15544;BMP180;7873;52.230;12.856;2022-10-16T02:04:32;100509.31;;;25.10
15544;BMP180;7873;52.230;12.856;2022-10-16T02:06:59;100501.88;;;25.12
15544;BMP180;7873;52.230;12.856;2022-10-16T02:09:26;100498.97;;;25.13
15544;BMP180;7873;52.230;12.856;2022-10-16T02:11:54;100491.91;;;25.12
15544;BMP180;7873;52.230;12.856;2022-10-16T02:14:23;100489.22;;;25.12
15544;BMP180;7873;52.230;12.856;2022-10-16T02:16:50;100497.31;;;25.12
15544;BMP180;7873;52.230;12.856;2022-10-16T02:19:18;100495.00;;;25.09
15544;BMP180;7873;52.230;12.856;2022-10-16T02:21:49;100486.75;;;25.11
15544;BMP180;7873;52.230;12.856;2022-10-16T02:24:23;100495.84;;;25.10
15544;BMP180;7873;52.230;12.856;2022-10-16T02:26:57;100504.56;;;25.12
15544;BMP180;7873;52.230;12.856;2022-10-16T02:29:27;100511.41;;;25.14
15544;BMP180;7873;52.230;12.856;2022-10-16T02:31:57;100514.72;;;25.16
15544;BMP180;7873;52.230;12.856;2022-10-16T02:34:27;100507.69;;;25.15
15544;BMP180;7873;52.230;12.856;2022-10-16T02:36:56;100509.56;;;25.15
15544;BMP180;7873;52.230;12.856;2022-10-16T02:39:23;100508.53;;;25.16
15544;BMP180;7873;52.230;12.856;2022-10-16T02:41:50;100503.31;;;25.14
15544;BMP180;7873;52.230;12.856;2022-10-16T02:44:17;100497.94;;;25.14
15544;BMP180;7873;52.230;12.856;2022-10-16T02:46:43;100502.69;;;25.12
15544;BMP180;7873;52.230;12.856;2022-10-16T02:49:10;100509.97;;;25.12
15544;BMP180;7873;52.230;12.856;2022-10-16T02:51:38;100507.25;;;25.12
15544;BMP180;7873;52.230;12.856;2022-10-16T02:54:05;100509.97;;;25.12
15544;BMP180;7873;52.230;12.856;2022-10-16T02:56:32;100521.94;;;25.09
15544;BMP180;7873;52.230;12.856;2022-10-16T02:58:58;100513.47;;;25.12
15544;BMP180;7873;52.230;12.856;2022-10-16T03:01:25;100510.59;;;25.14
15544;BMP180;7873;52.230;12.856;2022-10-16T03:03:52;100514.09;;;25.14
15544;BMP180;7873;52.230;12.856;2022-10-16T03:06:18;100511.63;;;25.13
15544;BMP180;7873;52.230;12.856;2022-10-16T03:08:46;100504.34;;;25.13
15544;BMP180;7873;52.230;12.856;2022-10-16T03:11:13;100520.13;;;25.16
15544;BMP180;7873;52.230;12.856;2022-10-16T03:13:40;100527.19;;;25.17
15544;BMP180;7873;52.230;12.856;2022-10-16T03:16:07;100529.88;;;25.17
15544;BMP180;7873;52.230;12.856;2022-10-16T03:18:33;100529.25;;;25.15
15544;BMP180;7873;52.230;12.856;2022-10-16T03:21:00;100544.38;;;25.16
15544;BMP180;7873;52.230;12.856;2022-10-16T03:23:27;100538.16;;;25.16
15544;BMP180;7873;52.230;12.856;2022-10-16T03:25:55;100542.38;;;25.18
15544;BMP180;7873;52.230;12.856;2022-10-16T03:28:22;100550.47;;;25.18
15544;BMP180;7873;52.230;12.856;2022-10-16T03:30:49;100557.69;;;25.18
15544;BMP180;7873;52.230;12.856;2022-10-16T03:33:15;100568.00;;;25.14
15544;BMP180;7873;52.230;12.856;2022-10-16T03:35:42;100557.03;;;25.16
15544;BMP180;7873;52.230;12.856;2022-10-16T03:38:08;100556.00;;;25.17
15544;BMP180;7873;52.230;12.856;2022-10-16T03:40:35;100569.47;;;25.17
15544;BMP180;7873;52.230;12.856;2022-10-16T03:43:03;100565.13;;;25.16
15544;BMP180;7873;52.230;12.856;2022-10-16T03:45:30;100565.78;;;25.18
15544;BMP180;7873;52.230;12.856;2022-10-16T03:47:56;100568.47;;;25.18
15544;BMP180;7873;52.230;12.856;2022-10-16T03:50:23;100567.47;;;25.19
15544;BMP180;7873;52.230;12.856;2022-10-16T03:52:50;100568.47;;;25.18
15544;BMP180;7873;52.230;12.856;2022-10-16T03:55:17;100565.94;;;25.16
15544;BMP180;7873;52.230;12.856;2022-10-16T03:57:43;100564.91;;;25.17
15544;BMP180;7873;52.230;12.856;2022-10-16T04:00:12;100560.75;;;25.15
15544;BMP180;7873;52.230;12.856;2022-10-16T04:02:39;100553.97;;;25.19
15544;BMP180;7873;52.230;12.856;2022-10-16T04:05:06;100549.44;;;25.19
15544;BMP180;7873;52.230;12.856;2022-10-16T04:07:33;100548.59;;;25.19
15544;BMP180;7873;52.230;12.856;2022-10-16T04:10:00;100556.50;;;25.20
15544;BMP180;7873;52.230;12.856;2022-10-16T04:12:26;100558.78;;;25.23
15544;BMP180;7873;52.230;12.856;2022-10-16T04:14:53;100566.25;;;25.21
15544;BMP180;7873;52.230;12.856;2022-10-16T04:17:21;100556.00;;;25.17
15544;BMP180;7873;52.230;12.856;2022-10-16T04:19:48;100557.84;;;25.16
15544;BMP180;7873;52.230;12.856;2022-10-16T04:22:15;100558.25;;;25.13
15544;BMP180;7873;52.230;12.856;2022-10-16T04:24:41;100561.56;;;25.15
15544;BMP180;7873;52.230;12.856;2022-10-16T04:27:08;100567.59;;;25.17
15544;BMP180;7873;52.230;12.856;2022-10-16T04:29:35;100568.00;;;25.14
15544;BMP180;7873;52.230;12.856;2022-10-16T04:32:02;100557.03;;;25.16
15544;BMP180;7873;52.230;12.856;2022-10-16T04:34:29;100566.78;;;25.17
15544;BMP180;7873;52.230;12.856;2022-10-16T04:36:56;100564.09;;;25.17
15544;BMP180;7873;52.230;12.856;2022-10-16T04:39:23;100570.16;;;25.19
15544;BMP180;7873;52.230;12.856;2022-10-16T04:41:49;100561.66;;;25.22
15544;BMP180;7873;52.230;12.856;2022-10-16T04:44:16;100571.25;;;25.24
15544;BMP180;7873;52.230;12.856;2022-10-16T04:46:43;100571.88;;;25.26
15544;BMP180;7873;52.230;12.856;2022-10-16T04:49:10;100581.41;;;25.29
15544;BMP180;7873;52.230;12.856;2022-10-16T04:51:38;100581.41;;;25.29
15544;BMP180;7873;52.230;12.856;2022-10-16T04:54:04;100584.56;;;25.32
15544;BMP180;7873;52.230;12.856;2022-10-16T04:56:31;100596.78;;;25.28
15544;BMP180;7873;52.230;12.856;2022-10-16T04:58:58;100588.53;;;25.36
15544;BMP180;7873;52.230;12.856;2022-10-16T05:01:24;100586.47;;;25.38
15544;BMP180;7873;52.230;12.856;2022-10-16T05:03:51;100584.63;;;25.39
15544;BMP180;7873;52.230;12.856;2022-10-16T05:06:17;100584.00;;;25.37
15544;BMP180;7873;52.230;12.856;2022-10-16T05:08:45;100570.13;;;25.40
15544;BMP180;7873;52.230;12.856;2022-10-16T05:11:12;100570.75;;;25.42
15544;BMP180;7873;52.230;12.856;2022-10-16T05:13:39;100573.44;;;25.42
15544;BMP180;7873;52.230;12.856;2022-10-16T05:16:06;100583.00;;;25.44
15544;BMP180;7873;52.230;12.856;2022-10-16T05:18:32;100581.34;;;25.43
15544;BMP180;7873;52.230;12.856;2022-10-16T05:20:59;100581.34;;;25.43
15544;BMP180;7873;52.230;12.856;2022-10-16T05:23:26;100594.19;;;25.41
15544;BMP180;7873;52.230;12.856;2022-10-16T05:25:54;100594.38;;;25.40
15544;BMP180;7873;52.230;12.856;2022-10-16T05:28:23;100604.97;;;25.41
15544;BMP180;7873;52.230;12.856;2022-10-16T05:30:50;100598.28;;;25.37
15544;BMP180;7873;52.230;12.856;2022-10-16T05:33:19;100599.31;;;25.36
15544;BMP180;7873;52.230;12.856;2022-10-16T05:35:46;100604.53;;;25.38
15544;BMP180;7873;52.230;12.856;2022-10-16T05:38:13;100594.56;;;25.38
15544;BMP180;7873;52.230;12.856;2022-10-16T05:40:40;100597.88;;;25.40
15544;BMP180;7873;52.230;12.856;2022-10-16T05:43:08;100590.84;;;25.39
15544;BMP180;7873;52.230;12.856;2022-10-16T05:45:34;100588.81;;;25.41
15544;BMP180;7873;52.230;12.856;2022-10-16T05:48:01;100592.72;;;25.39
15544;BMP180;7873;52.230;12.856;2022-10-16T05:50:28;100595.59;;;25.37
15544;BMP180;7873;52.230;12.856;2022-10-16T05:52:54;100594.78;;;25.37
15544;BMP180;7873;52.230;12.856;2022-10-16T05:55:21;100596.81;;;25.35
15544;BMP180;7873;52.230;12.856;2022-10-16T05:57:47;100594.31;;;25.33
15544;BMP180;7873;52.230;12.856;2022-10-16T06:00:15;100597.41;;;25.30
15544;BMP180;7873;52.230;12.856;2022-10-16T06:02:42;100610.00;;;25.23
15544;BMP180;7873;52.230;12.856;2022-10-16T06:05:09;100599.69;;;25.12
15544;BMP180;7873;52.230;12.856;2022-10-16T06:07:36;100611.66;;;25.03
15544;BMP180;7873;52.230;12.856;2022-10-16T06:10:03;100609.72;;;24.97
15544;BMP180;7873;52.230;12.856;2022-10-16T06:12:30;100619.91;;;25.02
15544;BMP180;7873;52.230;12.856;2022-10-16T06:14:57;100630.13;;;25.06
15544;BMP180;7873;52.230;12.856;2022-10-16T06:17:25;100622.03;;;25.06
15544;BMP180;7873;52.230;12.856;2022-10-16T06:19:52;100638.38;;;25.05
15544;BMP180;7873;52.230;12.856;2022-10-16T06:22:18;100637.56;;;25.04
15544;BMP180;7873;52.230;12.856;2022-10-16T06:24:45;100636.66;;;24.97
15544;BMP180;7873;52.230;12.856;2022-10-16T06:27:12;100647.31;;;25.05
15544;BMP180;7873;52.230;12.856;2022-10-16T06:29:39;100646.53;;;25.11
15544;BMP180;7873;52.230;12.856;2022-10-16T06:32:06;100659.22;;;25.17
15544;BMP180;7873;52.230;12.856;2022-10-16T06:34:34;100658.81;;;25.14
15544;BMP180;7873;52.230;12.856;2022-10-16T06:37:00;100653.81;;;25.11
15544;BMP180;7873;52.230;12.856;2022-10-16T06:39:27;100650.19;;;25.04
15544;BMP180;7873;52.230;12.856;2022-10-16T06:41:54;100661.28;;;24.94
15544;BMP180;7873;52.230;12.856;2022-10-16T06:44:20;100667.91;;;24.92
15544;BMP180;7873;52.230;12.856;2022-10-16T06:46:47;100662.69;;;24.90
15544;BMP180;7873;52.230;12.856;2022-10-16T06:49:14;100662.69;;;24.90
15544;BMP180;7873;52.230;12.856;2022-10-16T06:51:47;100660.38;;;24.87
15544;BMP180;7873;52.230;12.856;2022-10-16T06:54:15;100671.06;;;24.81
15544;BMP180;7873;52.230;12.856;2022-10-16T06:56:42;100677.31;;;24.81
15544;BMP180;7873;52.230;12.856;2022-10-16T06:59:08;100684.75;;;24.79
15544;BMP180;7873;52.230;12.856;2022-10-16T07:01:43;100681.16;;;24.72
15544;BMP180;7873;52.230;12.856;2022-10-16T07:04:24;100677.13;;;24.68
15544;BMP180;7873;52.230;12.856;2022-10-16T07:07:02;100668.78;;;24.63
15544;BMP180;7873;52.230;12.856;2022-10-16T07:09:28;100648.28;;;24.62
15544;BMP180;7873;52.230;12.856;2022-10-16T07:11:55;100656.09;;;24.57
15544;BMP180;7873;52.230;12.856;2022-10-16T07:14:22;100673.28;;;24.56
15544;BMP180;7873;52.230;12.856;2022-10-16T07:16:48;100688.97;;;24.53
15544;BMP180;7873;52.230;12.856;2022-10-16T07:19:15;100698.06;;;24.52
15544;BMP180;7873;52.230;12.856;2022-10-16T07:21:43;100696.22;;;24.52
15544;BMP180;7873;52.230;12.856;2022-10-16T07:24:13;100682.06;;;24.50
15544;BMP180;7873;52.230;12.856;2022-10-16T07:26:41;100683.78;;;24.51
15544;BMP180;7873;52.230;12.856;2022-10-16T07:29:12;100701.28;;;24.47
15544;BMP180;7873;52.230;12.856;2022-10-16T07:31:39;100692.66;;;24.52
15544;BMP180;7873;52.230;12.856;2022-10-16T07:34:06;100699.56;;;24.54
15544;BMP180;7873;52.230;12.856;2022-10-16T07:36:33;100711.44;;;24.60
15544;BMP180;7873;52.230;12.856;2022-10-16T07:39:00;100719.22;;;24.55
15544;BMP180;7873;52.230;12.856;2022-10-16T07:41:28;100733.41;;;24.49
15544;BMP180;7873;52.230;12.856;2022-10-16T07:43:55;100730.88;;;24.47
15544;BMP180;7873;52.230;12.856;2022-10-16T07:46:25;100739.72;;;24.41
15544;BMP180;7873;52.230;12.856;2022-10-16T07:48:52;100738.59;;;24.36
15544;BMP180;7873;52.230;12.856;2022-10-16T07:51:20;100743.16;;;24.35
15544;BMP180;7873;52.230;12.856;2022-10-16T07:53:48;100741.47;;;24.34
15544;BMP180;7873;52.230;12.856;2022-10-16T07:56:16;100736.91;;;24.35
15544;BMP180;7873;52.230;12.856;2022-10-16T07:58:45;100736.09;;;24.34
15544;BMP180;7873;52.230;12.856;2022-10-16T08:01:13;100749.34;;;24.36
15544;BMP180;7873;52.230;12.856;2022-10-16T08:03:41;100751.22;;;24.35
15544;BMP180;7873;52.230;12.856;2022-10-16T08:06:08;100752.91;;;24.36
15544;BMP180;7873;52.230;12.856;2022-10-16T08:08:35;100744.16;;;24.34
15544;BMP180;7873;52.230;12.856;2022-10-16T08:11:01;100760.31;;;24.34
15544;BMP180;7873;52.230;12.856;2022-10-16T08:13:29;100756.13;;;24.32
15544;BMP180;7873;52.230;12.856;2022-10-16T08:15:57;100749.28;;;24.29
15544;BMP180;7873;52.230;12.856;2022-10-16T08:18:24;100753.00;;;24.28
15544;BMP180;7873;52.230;12.856;2022-10-16T08:20:55;100756.88;;;24.26
15544;BMP180;7873;52.230;12.856;2022-10-16T08:23:22;100762.25;;;24.26
15544;BMP180;7873;52.230;12.856;2022-10-16T08:25:48;100766.16;;;24.23
15544;BMP180;7873;52.230;12.856;2022-10-16T08:28:15;100766.06;;;24.31
15544;BMP180;7873;52.230;12.856;2022-10-16T08:30:42;100769.16;;;24.28
15544;BMP180;7873;52.230;12.856;2022-10-16T08:33:10;100772.00;;;24.27
15544;BMP180;7873;52.230;12.856;2022-10-16T08:35:37;100777.22;;;24.28
15544;BMP180;7873;52.230;12.856;2022-10-16T08:38:04;100784.28;;;24.29
15544;BMP180;7873;52.230;12.856;2022-10-16T08:40:32;100788.16;;;24.27
15544;BMP180;7873;52.230;12.856;2022-10-16T08:43:10;100771.47;;;24.31
15544;BMP180;7873;52.230;12.856;2022-10-16T08:45:51;100768.78;;;24.31
15544;BMP180;7873;52.230;12.856;2022-10-16T08:48:23;100772.84;;;24.27
15544;BMP180;7873;52.230;12.856;2022-10-16T08:50:52;100772.66;;;24.29
15544;BMP180;7873;52.230;12.856;2022-10-16T08:53:22;100783.25;;;24.30
15544;BMP180;7873;52.230;12.856;2022-10-16T08:55:50;100795.28;;;24.20
15544;BMP180;7873;52.230;12.856;2022-10-16T08:58:19;100803.72;;;24.17
15544;BMP180;7873;52.230;12.856;2022-10-16T09:00:49;100809.53;;;24.06
15544;BMP180;7873;52.230;12.856;2022-10-16T09:03:27;100810.19;;;24.08
15544;BMP180;7873;52.230;12.856;2022-10-16T09:06:08;100811.69;;;24.10
15544;BMP180;7873;52.230;12.856;2022-10-16T09:08:45;100809.41;;;24.22
15544;BMP180;7873;52.230;12.856;2022-10-16T09:11:20;100810.34;;;24.29
15544;BMP180;7873;52.230;12.856;2022-10-16T09:13:52;100800.22;;;24.31
15544;BMP180;7873;52.230;12.856;2022-10-16T09:16:24;100807.75;;;24.35
15544;BMP180;7873;52.230;12.856;2022-10-16T09:19:01;100801.81;;;24.40
15544;BMP180;7873;52.230;12.856;2022-10-16T09:21:30;100803.13;;;24.44
15544;BMP180;7873;52.230;12.856;2022-10-16T09:23:58;100810.53;;;24.42
15544;BMP180;7873;52.230;12.856;2022-10-16T09:26:26;100819.28;;;24.44
15544;BMP180;7873;52.230;12.856;2022-10-16T09:28:53;100829.38;;;24.42
15544;BMP180;7873;52.230;12.856;2022-10-16T09:31:21;100832.09;;;24.42
15544;BMP180;7873;52.230;12.856;2022-10-16T09:33:51;100819.28;;;24.44
15544;BMP180;7873;52.230;12.856;2022-10-16T09:36:20;100822.41;;;24.47
15544;BMP180;7873;52.230;12.856;2022-10-16T09:38:48;100822.75;;;24.52
15544;BMP180;7873;52.230;12.856;2022-10-16T09:41:18;100835.47;;;24.58
15544;BMP180;7873;52.230;12.856;2022-10-16T09:43:52;100835.63;;;24.57
15544;BMP180;7873;52.230;12.856;2022-10-16T09:46:24;100840.09;;;24.64
15544;BMP180;7873;52.230;12.856;2022-10-16T09:48:54;100849.31;;;24.70
15544;BMP180;7873;52.230;12.856;2022-10-16T09:51:24;100846.72;;;24.76
15544;BMP180;7873;52.230;12.856;2022-10-16T09:53:55;100849.03;;;24.79
15544;BMP180;7873;52.230;12.856;2022-10-16T09:56:23;100859.59;;;24.81
15544;BMP180;7873;52.230;12.856;2022-10-16T09:58:51;100851.25;;;24.90
15544;BMP180;7873;52.230;12.856;2022-10-16T10:01:19;100853.78;;;24.92
15544;BMP180;7873;52.230;12.856;2022-10-16T10:03:46;100864.00;;;24.96
15544;BMP180;7873;52.230;12.856;2022-10-16T10:06:24;100873.94;;;24.96
15544;BMP180;7873;52.230;12.856;2022-10-16T10:08:56;100873.56;;;24.99
15544;BMP180;7873;52.230;12.856;2022-10-16T10:14:21;100867.41;;;24.90
15544;BMP180;7873;52.230;12.856;2022-10-16T10:16:49;100870.03;;;24.84
15544;BMP180;7873;52.230;12.856;2022-10-16T10:19:18;100857.28;;;24.78
15544;BMP180;7873;52.230;12.856;2022-10-16T10:21:47;100865.84;;;24.81
15544;BMP180;7873;52.230;12.856;2022-10-16T10:24:15;100862.31;;;24.81
15544;BMP180;7873;52.230;12.856;2022-10-16T10:26:48;100871.22;;;24.81
15544;BMP180;7873;52.230;12.856;2022-10-16T10:29:23;100878.13;;;24.84
15544;BMP180;7873;52.230;12.856;2022-10-16T10:31:59;100868.34;;;24.83
15544;BMP180;7873;52.230;12.856;2022-10-16T10:34:42;100873.94;;;24.81
15544;BMP180;7873;52.230;12.856;2022-10-16T10:37:26;100869.56;;;24.80
15544;BMP180;7873;52.230;12.856;2022-10-16T10:39:57;100879.50;;;24.80
15544;BMP180;7873;52.230;12.856;2022-10-16T10:42:32;100878.03;;;24.77
15544;BMP180;7873;52.230;12.856;2022-10-16T10:45:13;100870.97;;;24.76
15544;BMP180;7873;52.230;12.856;2022-10-16T10:47:49;100869.94;;;24.77
15544;BMP180;7873;52.230;12.856;2022-10-16T10:50:23;100870.09;;;24.76
15544;BMP180;7873;52.230;12.856;2022-10-16T10:52:59;100866.78;;;24.74
15544;BMP180;7873;52.230;12.856;2022-10-16T10:55:36;100880.44;;;24.72
15544;BMP180;7873;52.230;12.856;2022-10-16T10:58:22;100887.50;;;24.73
15544;BMP180;7873;52.230;12.856;2022-10-16T11:00:57;100895.91;;;24.70
15544;BMP180;7873;52.230;12.856;2022-10-16T11:03:56;100890.53;;;24.70
15544;BMP180;7873;52.230;12.856;2022-10-16T11:06:29;100890.34;;;24.72
15544;BMP180;7873;52.230;12.856;2022-10-16T11:09:00;100882.09;;;24.73
15544;BMP180;7873;52.230;12.856;2022-10-16T11:11:32;100884.81;;;24.73
15544;BMP180;7873;52.230;12.856;2022-10-16T11:14:04;100887.50;;;24.73
15544;BMP180;7873;52.230;12.856;2022-10-16T11:16:39;100880.22;;;24.74
15544;BMP180;7873;52.230;12.856;2022-10-16T11:19:11;100880.22;;;24.74
15544;BMP180;7873;52.230;12.856;2022-10-16T11:21:44;100880.44;;;24.72
15544;BMP180;7873;52.230;12.856;2022-10-16T11:24:20;100884.81;;;24.73
15544;BMP180;7873;52.230;12.856;2022-10-16T11:26:49;100875.69;;;24.74
15544;BMP180;7873;52.230;12.856;2022-10-16T11:29:20;100885.44;;;24.75
15544;BMP180;7873;52.230;12.856;2022-10-16T11:31:50;100876.50;;;24.75
15544;BMP180;7873;52.230;12.856;2022-10-16T11:34:23;100874.69;;;24.75
15544;BMP180;7873;52.230;12.856;2022-10-16T11:36:57;100880.88;;;24.76
15544;BMP180;7873;52.230;12.856;2022-10-16T11:39:29;100884.81;;;24.73
15544;BMP180;7873;52.230;12.856;2022-10-16T11:41:59;100874.03;;;24.73
15544;BMP180;7873;52.230;12.856;2022-10-16T11:44:42;100882.94;;;24.74
15544;BMP180;7873;52.230;12.856;2022-10-16T11:47:24;100880.44;;;24.72
15544;BMP180;7873;52.230;12.856;2022-10-16T11:49:57;100877.06;;;24.70
15544;BMP180;7873;52.230;12.856;2022-10-16T11:52:28;100891.56;;;24.69
15544;BMP180;7873;52.230;12.856;2022-10-16T11:55:02;100886.38;;;24.68
15544;BMP180;7873;52.230;12.856;2022-10-16T11:57:33;100888.22;;;24.67
15544;BMP180;7873;52.230;12.856;2022-10-16T12:00:02;100896.13;;;24.69
15544;BMP180;7873;52.230;12.856;2022-10-16T12:02:44;100893.22;;;24.70
15544;BMP180;7873;52.230;12.856;2022-10-16T12:05:22;100892.19;;;24.71
15544;BMP180;7873;52.230;12.856;2022-10-16T12:07:55;100894.88;;;24.71
15544;BMP180;7873;52.230;12.856;2022-10-16T12:10:27;100899.28;;;24.72
15544;BMP180;7873;52.230;12.856;2022-10-16T12:12:57;100896.59;;;24.72
15544;BMP180;7873;52.230;12.856;2022-10-16T12:15:25;100893.06;;;24.72
15544;BMP180;7873;52.230;12.856;2022-10-16T12:17:53;100901.13;;;24.72
15544;BMP180;7873;52.230;12.856;2022-10-16T12:20:26;100905.66;;;24.71
15544;BMP180;7873;52.230;12.856;2022-10-16T12:22:55;100904.84;;;24.71
15544;BMP180;7873;52.230;12.856;2022-10-16T12:25:26;100919.97;;;24.72
15544;BMP180;7873;52.230;12.856;2022-10-16T12:27:55;100919.13;;;24.71
15544;BMP180;7873;52.230;12.856;2022-10-16T12:30:24;100910.41;;;24.69
15544;BMP180;7873;52.230;12.856;2022-10-16T12:32:56;100914.75;;;24.70
15544;BMP180;7873;52.230;12.856;2022-10-16T12:35:25;100918.31;;;24.71
15544;BMP180;7873;52.230;12.856;2022-10-16T12:37:53;100919.97;;;24.72
15544;BMP180;7873;52.230;12.856;2022-10-16T12:40:29;100911.25;;;24.70
15544;BMP180;7873;52.230;12.856;2022-10-16T12:42:57;100917.28;;;24.72
15544;BMP180;7873;52.230;12.856;2022-10-16T12:45:27;100908.72;;;24.68
15544;BMP180;7873;52.230;12.856;2022-10-16T12:47:55;100916.53;;;24.63
15544;BMP180;7873;52.230;12.856;2022-10-16T12:50:34;100918.28;;;24.56
15544;BMP180;7873;52.230;12.856;2022-10-16T12:53:03;100916.13;;;24.52
15544;BMP180;7873;52.230;12.856;2022-10-16T12:55:49;100915.81;;;24.47
15544;BMP180;7873;52.230;12.856;2022-10-16T12:58:42;100913.59;;;24.50
15544;BMP180;7873;52.230;12.856;2022-10-16T13:01:23;100926.72;;;24.53
15544;BMP180;7873;52.230;12.856;2022-10-16T13:04:08;100927.75;;;24.52
15544;BMP180;7873;52.230;12.856;2022-10-16T13:06:39;100935.75;;;24.60
15544;BMP180;7873;52.230;12.856;2022-10-16T13:09:18;100943.75;;;24.68
15544;BMP180;7873;52.230;12.856;2022-10-16T13:12:01;100945.91;;;24.73
15544;BMP180;7873;52.230;12.856;2022-10-16T13:14:58;100956.28;;;24.76
15544;BMP180;7873;52.230;12.856;2022-10-16T13:17:34;100954.91;;;24.80
15544;BMP180;7873;52.230;12.856;2022-10-16T13:20:12;100955.56;;;24.82
15544;BMP180;7873;52.230;12.856;2022-10-16T13:22:50;100960.03;;;24.89
15544;BMP180;7873;52.230;12.856;2022-10-16T13:25:26;100963.22;;;24.93
15544;BMP180;7873;52.230;12.856;2022-10-16T13:27:59;100961.34;;;24.93
15544;BMP180;7873;52.230;12.856;2022-10-16T13:30:28;100965.81;;;25.01
15544;BMP180;7873;52.230;12.856;2022-10-16T13:33:00;100968.63;;;25.07
15544;BMP180;7873;52.230;12.856;2022-10-16T13:35:29;100970.75;;;25.12
15544;BMP180;7873;52.230;12.856;2022-10-16T13:38:12;100974.94;;;25.14
15544;BMP180;7873;52.230;12.856;2022-10-16T13:40:49;100969.91;;;25.11
15544;BMP180;7873;52.230;12.856;2022-10-16T13:43:19;100977.34;;;25.09
15544;BMP180;7873;52.230;12.856;2022-10-16T13:45:57;100977.25;;;25.03
15544;BMP180;7873;52.230;12.856;2022-10-16T13:48:25;100977.88;;;25.05
15544;BMP180;7873;52.230;12.856;2022-10-16T13:50:59;100981.81;;;25.02
15544;BMP180;7873;52.230;12.856;2022-10-16T13:53:26;100983.97;;;25.07
15544;BMP180;7873;52.230;12.856;2022-10-16T13:55:53;100979.38;;;25.07
15544;BMP180;7873;52.230;12.856;2022-10-16T13:58:21;100989.44;;;25.13
15544;BMP180;7873;52.230;12.856;2022-10-16T14:00:56;100985.69;;;25.14
15544;BMP180;7873;52.230;12.856;2022-10-16T14:03:23;100984.50;;;25.17
15544;BMP180;7873;52.230;12.856;2022-10-16T14:05:52;100982.25;;;25.06
15544;BMP180;7873;52.230;12.856;2022-10-16T14:08:19;100990.00;;;25.09
15544;BMP180;7873;52.230;12.856;2022-10-16T14:10:48;100990.44;;;25.12
15544;BMP180;7873;52.230;12.856;2022-10-16T14:13:17;100991.94;;;25.15
15544;BMP180;7873;52.230;12.856;2022-10-16T14:15:47;100993.28;;;25.19